Time;durP1;ratioP1;P1;durP2;ratioP2;P2;SDS_P1;SDS_P2;PMS_P1;PMS_P2;Temp;Humidity;BMP_temperature;BMP_pressure;BME280_temperature;BME280_humidity;BME280_pressure;Samples;Min_cycle;Max_cycle;Signal;HPM_P1;HPM_P2
2023/07/07 00:01:11;;;;;;;3.83;3.47;;;19.90;71.40;;;;;;10472254;28;20255;-83
2023/07/07 00:06:13;;;;;;;3.97;3.67;;;19.90;71.40;;;;;;10504256;28;20284;-83
2023/07/07 00:11:17;;;;;;;4.53;3.97;;;19.90;71.30;;;;;;10487068;28;20220;-83
2023/07/07 00:16:20;;;;;;;4.10;3.80;;;19.80;70.60;;;;;;10504712;28;20205;-81
2023/07/07 00:21:24;;;;;;;3.93;3.63;;;19.80;70.70;;;;;;10508732;28;20228;-83
2023/07/07 00:26:27;;;;;;;4.37;3.97;;;19.70;69.80;;;;;;10509606;28;20205;-83
2023/07/07 00:31:30;;;;;;;4.03;3.73;;;19.60;69.90;;;;;;10498440;28;20692;-82
2023/07/07 00:36:32;;;;;;;3.90;3.60;;;19.50;70.40;;;;;;10504927;28;20201;-82
2023/07/07 00:41:36;;;;;;;4.43;3.63;;;19.50;71.70;;;;;;10482747;28;20221;-82
2023/07/07 00:46:39;;;;;;;4.17;3.77;;;19.40;71.40;;;;;;10501935;28;20267;-81
2023/07/07 00:51:47;;;;;;;4.57;4.17;;;19.40;73.00;;;;;;10502049;28;20361;-82
2023/07/07 00:56:52;;;;;;;4.27;3.97;;;19.30;71.60;;;;;;10498308;28;20266;-82
2023/07/07 01:01:59;;;;;;;4.70;3.77;;;19.30;73.90;;;;;;10478162;28;20818;-82
2023/07/07 01:07:19;;;;;;;4.20;3.80;;;19.30;73.80;;;;;;10481265;28;20738;-81
2023/07/07 01:12:22;;;;;;;4.83;4.43;;;19.30;73.80;;;;;;10482980;28;20224;-82
2023/07/07 01:17:31;;;;;;;4.90;4.50;;;19.20;74.00;;;;;;10476860;28;20212;-80
2023/07/07 01:23:05;;;;;;;3.97;3.63;;;19.20;74.10;;;;;;10485637;28;20323;-83
2023/07/07 01:28:35;;;;;;;6.57;4.50;;;19.20;74.10;;;;;;10479915;28;20204;-81
2023/07/07 01:33:40;;;;;;;4.23;3.70;;;19.20;73.70;;;;;;10489179;28;20216;-82
2023/07/07 01:38:45;;;;;;;4.80;4.40;;;19.10;73.60;;;;;;10481457;28;20574;-82
2023/07/07 01:43:54;;;;;;;4.73;4.33;;;19.10;74.40;;;;;;10462615;28;20304;-81
2023/07/07 01:49:03;;;;;;;5.23;4.53;;;19.00;72.80;;;;;;10479683;28;21136;-82
2023/07/07 01:54:07;;;;;;;4.63;4.33;;;19.00;74.00;;;;;;10502298;28;20232;-82
2023/07/07 01:59:09;;;;;;;4.57;4.17;;;18.90;73.10;;;;;;10483490;28;20217;-81
2023/07/07 02:04:13;;;;;;;4.53;4.23;;;18.90;75.80;;;;;;10466664;28;20700;-83
2023/07/07 02:09:15;;;;;;;4.77;4.37;;;18.90;75.10;;;;;;10503888;28;20200;-82
2023/07/07 02:14:17;;;;;;;4.40;4.10;;;18.90;74.20;;;;;;10504040;28;20251;-81
2023/07/07 02:19:21;;;;;;;4.40;4.10;;;18.90;74.60;;;;;;10470998;28;20228;-79
2023/07/07 02:24:23;;;;;;;4.77;4.33;;;18.80;73.90;;;;;;10491020;28;20229;-82
2023/07/07 02:29:25;;;;;;;4.80;4.30;;;18.70;75.80;;;;;;10475448;28;20193;-82
2023/07/07 02:34:29;;;;;;;5.37;4.80;;;18.70;75.30;;;;;;10480560;28;20263;-83
2023/07/07 02:39:32;;;;;;;4.57;4.20;;;18.70;76.90;;;;;;10496474;28;20274;-82
2023/07/07 02:44:34;;;;;;;5.27;4.30;;;18.70;76.00;;;;;;10510346;28;20217;-82
2023/07/07 02:49:39;;;;;;;4.97;4.57;;;18.70;75.10;;;;;;10490397;28;20201;-82
2023/07/07 02:54:41;;;;;;;4.90;4.50;;;18.60;76.10;;;;;;10511086;28;20221;-82
2023/07/07 02:59:44;;;;;;;4.60;4.20;;;18.60;76.20;;;;;;10490252;28;20759;-80
2023/07/07 03:04:48;;;;;;;5.33;4.93;;;18.60;76.30;;;;;;10491029;28;20661;-82
2023/07/07 03:09:50;;;;;;;5.10;4.60;;;18.50;76.10;;;;;;10505753;28;20198;-80
2023/07/07 03:14:54;;;;;;;5.80;5.30;;;18.50;77.00;;;;;;10474233;28;20216;-82
2023/07/07 03:19:59;;;;;;;6.30;5.10;;;18.40;77.50;;;;;;10472133;28;20228;-82
2023/07/07 03:25:01;;;;;;;5.63;4.40;;;18.40;77.70;;;;;;10484391;28;20288;-80
2023/07/07 03:30:11;;;;;;;4.83;4.43;;;18.40;77.00;;;;;;10490068;28;20267;-81
2023/07/07 03:35:29;;;;;;;4.50;4.10;;;18.40;77.80;;;;;;10488147;28;20247;-82
2023/07/07 03:40:32;;;;;;;5.13;4.63;;;18.40;78.00;;;;;;10486624;28;20247;-79
2023/07/07 03:45:35;;;;;;;4.77;4.20;;;18.30;77.10;;;;;;10488194;28;20189;-81
2023/07/07 03:50:40;;;;;;;4.20;3.83;;;18.30;78.00;;;;;;10485634;28;20233;-82
2023/07/07 03:55:42;;;;;;;4.63;4.23;;;18.20;78.10;;;;;;10488133;28;20259;-82
2023/07/07 04:00:45;;;;;;;3.77;3.47;;;18.30;78.20;;;;;;10504758;28;20249;-81
2023/07/07 04:05:50;;;;;;;4.13;3.83;;;18.30;76.80;;;;;;10479644;28;20703;-81
2023/07/07 04:11:00;;;;;;;4.83;4.47;;;18.30;76.50;;;;;;10482858;28;20217;-82
2023/07/07 04:16:05;;;;;;;4.70;4.33;;;18.20;76.70;;;;;;10485593;28;20236;-82
2023/07/07 04:21:11;;;;;;;5.03;4.37;;;18.20;76.50;;;;;;10485188;28;20225;-80
2023/07/07 04:26:14;;;;;;;3.87;3.57;;;18.20;77.60;;;;;;10484422;28;20584;-81
2023/07/07 04:31:16;;;;;;;4.00;3.70;;;18.20;79.20;;;;;;10485147;28;20594;-81
2023/07/07 04:36:20;;;;;;;5.20;4.80;;;18.30;78.50;;;;;;10503118;28;20197;-81
2023/07/07 04:41:24;;;;;;;4.03;3.73;;;18.30;77.50;;;;;;10504701;28;20316;-82
2023/07/07 04:46:29;;;;;;;4.30;3.90;;;18.30;78.30;;;;;;10515672;28;20657;-82
2023/07/07 04:51:32;;;;;;;4.30;3.90;;;18.40;78.90;;;;;;10480986;28;20206;-82
2023/07/07 04:56:35;;;;;;;5.17;4.47;;;18.40;79.40;;;;;;10499521;28;20287;-80
2023/07/07 05:01:38;;;;;;;4.63;4.13;;;18.50;79.90;;;;;;10504506;28;20278;-80
2023/07/07 05:06:42;;;;;;;5.47;4.10;;;18.50;80.10;;;;;;10484323;28;20267;-82
2023/07/07 05:11:44;;;;;;;4.60;4.20;;;18.60;79.70;;;;;;10477302;28;20225;-83
2023/07/07 05:16:46;;;;;;;4.60;4.20;;;18.60;80.20;;;;;;10498864;28;20646;-81
2023/07/07 05:21:49;;;;;;;7.57;4.50;;;18.70;81.10;;;;;;10505751;22;20907;-78
2023/07/07 05:26:53;;;;;;;5.17;4.63;;;18.80;80.60;;;;;;10462503;28;20216;-77
2023/07/07 05:31:55;;;;;;;6.33;5.80;;;18.80;81.50;;;;;;10462465;28;20204;-78
2023/07/07 05:36:59;;;;;;;7.63;5.50;;;18.90;82.60;;;;;;10409160;28;20207;-79
2023/07/07 05:42:01;;;;;;;5.73;4.67;;;18.90;81.90;;;;;;10414790;28;20220;-79
2023/07/07 05:47:03;;;;;;;7.23;5.90;;;19.00;82.90;;;;;;10436054;28;20202;-80
2023/07/07 05:52:08;;;;;;;6.47;5.90;;;19.10;83.60;;;;;;10438169;28;20222;-79
2023/07/07 05:57:11;;;;;;;6.37;5.77;;;19.20;84.40;;;;;;10440218;28;20194;-79
2023/07/07 06:02:13;;;;;;;6.33;5.83;;;19.30;83.10;;;;;;10411412;28;20253;-78
2023/07/07 06:07:16;;;;;;;6.40;5.80;;;19.40;82.80;;;;;;10416264;28;20562;-78
2023/07/07 06:12:18;;;;;;;6.40;5.80;;;19.50;82.10;;;;;;10432527;28;20214;-79
2023/07/07 06:17:20;;;;;;;7.30;6.60;;;19.60;83.10;;;;;;10415896;28;20584;-77
2023/07/07 06:22:24;;;;;;;5.63;5.13;;;19.70;82.70;;;;;;10416588;28;20288;-79
2023/07/07 06:27:26;;;;;;;6.27;5.73;;;19.80;81.50;;;;;;10453332;28;20206;-78
2023/07/07 06:32:28;;;;;;;6.27;4.67;;;20.00;81.30;;;;;;10455472;28;20647;-79
2023/07/07 06:37:31;;;;;;;9.40;5.67;;;20.10;82.60;;;;;;10448622;28;20195;-77
2023/07/07 06:42:33;;;;;;;5.87;5.37;;;20.20;82.80;;;;;;10447602;28;20214;-77
2023/07/07 06:47:42;;;;;;;5.83;4.97;;;20.40;82.40;;;;;;10426520;28;20204;-77
2023/07/07 06:52:46;;;;;;;5.47;4.97;;;20.70;81.40;;;;;;10430127;28;20632;-77
2023/07/07 06:57:48;;;;;;;5.47;4.97;;;20.90;80.10;;;;;;10447131;28;20210;-78
2023/07/07 07:02:50;;;;;;;6.57;4.80;;;21.30;79.10;;;;;;10451431;28;20288;-77
2023/07/07 07:07:53;;;;;;;7.17;5.63;;;21.50;78.30;;;;;;10451162;28;20625;-78
2023/07/07 07:12:55;;;;;;;8.93;5.23;;;21.70;79.10;;;;;;10420453;28;20629;-78
2023/07/07 07:17:58;;;;;;;10.50;5.63;;;22.00;78.10;;;;;;10451455;28;20664;-77
2023/07/07 07:23:01;;;;;;;4.27;3.87;;;22.20;76.70;;;;;;10435317;28;20229;-78
2023/07/07 07:28:03;;;;;;;5.63;5.13;;;22.50;77.10;;;;;;10459241;28;20193;-78
2023/07/07 07:33:18;;;;;;;6.47;5.30;;;22.80;76.10;;;;;;10454548;28;20265;-78
2023/07/07 07:38:22;;;;;;;9.47;4.77;;;23.00;75.10;;;;;;10453519;28;20674;-78
2023/07/07 07:43:24;;;;;;;5.00;4.50;;;23.30;72.30;;;;;;10441503;28;20237;-79
2023/07/07 07:48:26;;;;;;;6.37;4.93;;;23.60;72.50;;;;;;10441597;28;20226;-79
2023/07/07 07:53:29;;;;;;;5.37;4.63;;;23.90;72.70;;;;;;10442184;28;20276;-78
2023/07/07 07:58:31;;;;;;;6.83;5.00;;;24.20;70.90;;;;;;10457931;28;20217;-78
2023/07/07 08:03:33;;;;;;;4.67;4.33;;;24.40;71.10;;;;;;10459120;28;20214;-79
2023/07/07 08:08:37;;;;;;;5.80;4.17;;;24.70;70.00;;;;;;10438996;28;20277;-78
2023/07/07 08:13:39;;;;;;;9.17;4.80;;;25.10;69.60;;;;;;10459722;28;20217;-79
2023/07/07 08:18:41;;;;;;;5.27;4.77;;;25.50;69.60;;;;;;10454768;28;20210;-78
2023/07/07 08:23:45;;;;;;;5.17;4.57;;;25.90;67.30;;;;;;10453780;28;20222;-78
2023/07/07 08:28:47;;;;;;;3.70;3.40;;;26.50;67.10;;;;;;10455001;28;20209;-79
2023/07/07 08:33:50;;;;;;;5.50;5.00;;;27.10;64.90;;;;;;10456788;28;20299;-79
2023/07/07 08:38:53;;;;;;;5.30;4.13;;;27.70;63.30;;;;;;10456653;28;20213;-79
2023/07/07 08:43:56;;;;;;;6.03;5.03;;;28.20;62.50;;;;;;10459526;28;20244;-80
2023/07/07 08:49:05;;;;;;;5.57;4.87;;;28.70;59.80;;;;;;10441553;28;20209;-80
2023/07/07 08:54:16;;;;;;;7.43;5.30;;;29.20;59.50;;;;;;10458421;28;20252;-80
2023/07/07 08:59:27;;;;;;;4.83;4.43;;;29.60;58.30;;;;;;10459640;28;20567;-80
2023/07/07 09:04:41;;;;;;;5.23;4.73;;;30.10;56.50;;;;;;10460505;28;20214;-81
2023/07/07 09:10:02;;;;;;;9.07;4.70;;;30.50;56.30;;;;;;10487160;28;20225;-79
2023/07/07 09:15:13;;;;;;;5.37;4.80;;;30.90;54.70;;;;;;10456574;28;20230;-79
2023/07/07 09:20:18;;;;;;;6.40;5.60;;;31.40;54.20;;;;;;10454803;28;20210;-80
2023/07/07 09:25:25;;;;;;;6.40;5.13;;;31.70;54.50;;;;;;10431177;28;20291;-79
2023/07/07 09:30:31;;;;;;;5.80;4.90;;;32.20;53.00;;;;;;10447324;28;20202;-79
2023/07/07 09:35:37;;;;;;;5.23;4.83;;;32.60;50.90;;;;;;10451510;28;20217;-81
2023/07/07 09:40:50;;;;;;;6.10;5.60;;;33.10;49.20;;;;;;10441810;28;20217;-80
2023/07/07 09:46:02;;;;;;;5.10;4.70;;;33.60;44.30;;;;;;10448401;28;20235;-80
2023/07/07 09:51:14;;;;;;;5.93;5.30;;;34.00;45.80;;;;;;10456418;28;20201;-80
2023/07/07 09:56:22;;;;;;;7.55;5.40;;;34.90;45.20;;;;;;10450584;28;20285;-81
2023/07/07 10:01:29;;;;;;;6.25;5.75;;;36.00;44.40;;;;;;10453741;28;20221;-81
2023/07/07 10:06:36;;;;;;;5.57;5.03;;;37.10;43.30;;;;;;10458047;28;20221;-81
2023/07/07 10:11:42;;;;;;;5.60;5.10;;;38.20;42.50;;;;;;10453826;28;20200;-80
2023/07/07 10:17:07;;;;;;;5.50;5.10;;;39.20;42.50;;;;;;10456332;28;20221;-79
2023/07/07 10:22:11;;;;;;;6.65;6.05;;;40.10;40.10;;;;;;10446102;28;20594;-80
2023/07/07 10:27:23;;;;;;;6.53;5.93;;;40.70;37.20;;;;;;10434807;28;20194;-80
2023/07/07 10:32:25;;;;;;;6.75;6.20;;;39.60;38.00;;;;;;10443955;28;20303;-80
2023/07/07 10:37:32;;;;;;;7.27;6.67;;;37.50;37.50;;;;;;10454002;28;20189;-79
2023/07/07 10:42:35;;;;;;;6.83;6.10;;;35.50;41.10;;;;;;10444009;28;20213;-80
2023/07/07 10:47:38;;;;;;;8.30;7.50;;;34.00;41.40;;;;;;10452474;28;20247;-80
2023/07/07 10:52:51;;;;;;;8.10;6.90;;;32.80;43.70;;;;;;10452853;28;20217;-80
2023/07/07 10:58:07;;;;;;;9.70;8.17;;;31.80;43.70;;;;;;10435177;28;20206;-79
2023/07/07 11:03:38;;;;;;;7.33;6.63;;;31.00;44.60;;;;;;10458370;28;20307;-78
2023/07/07 11:08:48;;;;;;;9.20;8.30;;;30.30;46.20;;;;;;10453576;28;20689;-79
2023/07/07 11:14:07;;;;;;;9.60;8.70;;;29.80;45.30;;;;;;10459755;28;20728;-79
2023/07/07 11:19:33;;;;;;;8.43;7.50;;;29.40;45.50;;;;;;10460190;28;20206;-78
2023/07/07 11:24:42;;;;;;;7.30;6.60;;;29.00;47.40;;;;;;10432741;22;20234;-83
2023/07/07 11:29:56;;;;;;;10.83;7.70;;;28.80;48.70;;;;;;10489613;28;20225;-84
2023/07/07 11:35:18;;;;;;;7.20;6.50;;;28.60;47.40;;;;;;10479953;28;20216;-81
2023/07/07 11:40:40;;;;;;;11.00;7.30;;;28.50;46.50;;;;;;10471563;28;20218;-84
2023/07/07 11:46:03;;;;;;;8.57;7.73;;;28.40;47.90;;;;;;10495444;28;20367;-83
2023/07/07 11:51:23;;;;;;;8.70;7.80;;;28.30;46.40;;;;;;10466539;28;20194;-84
2023/07/07 11:56:46;;;;;;;9.17;8.00;;;28.20;48.00;;;;;;10491726;28;20285;-83
2023/07/07 12:01:53;;;;;;;10.33;7.60;;;28.20;43.00;;;;;;10487610;28;20225;-83
2023/07/07 12:07:00;;;;;;;10.70;8.77;;;28.10;44.60;;;;;;10485780;28;20674;-80
2023/07/07 12:12:10;;;;;;;9.40;6.47;;;28.10;45.50;;;;;;10486354;28;20201;-82
2023/07/07 12:17:19;;;;;;;9.70;7.57;;;28.00;46.00;;;;;;10487373;28;20617;-83
2023/07/07 12:22:25;;;;;;;8.47;7.57;;;28.00;46.20;;;;;;10489963;28;20228;-83
2023/07/07 12:27:31;;;;;;;10.77;7.50;;;28.00;46.60;;;;;;10483883;28;20298;-82
2023/07/07 12:32:35;;;;;;;9.80;7.47;;;28.00;46.70;;;;;;10489246;28;20561;-82
2023/07/07 12:37:37;;;;;;;8.43;7.53;;;28.00;46.70;;;;;;10467192;28;20340;-83
2023/07/07 12:42:43;;;;;;;8.27;7.40;;;28.10;46.90;;;;;;10486369;28;20251;-84
2023/07/07 12:47:55;;;;;;;8.43;7.07;;;28.10;47.30;;;;;;10475083;28;20224;-82
2023/07/07 12:53:03;;;;;;;8.00;7.00;;;28.10;48.00;;;;;;10488887;28;20228;-81
2023/07/07 12:58:44;;;;;;;9.27;7.30;;;28.00;48.00;;;;;;10488752;28;20198;-83
2023/07/07 13:04:11;;;;;;;9.13;6.33;;;28.00;46.40;;;;;;10468353;28;20234;-80
2023/07/07 13:09:20;;;;;;;8.33;6.40;;;27.90;46.50;;;;;;10485723;28;20197;-83
2023/07/07 13:14:41;;;;;;;8.90;7.37;;;27.90;45.50;;;;;;10470563;28;20254;-80
2023/07/07 13:19:49;;;;;;;8.37;6.87;;;28.00;45.50;;;;;;10483664;28;20216;-79
2023/07/07 13:24:57;;;;;;;6.03;5.47;;;28.00;46.30;;;;;;10482547;28;20252;-81
2023/07/07 13:30:01;;;;;;;6.93;5.90;;;27.90;48.80;;;;;;10498489;28;20213;-81
2023/07/07 13:35:05;;;;;;;8.43;6.97;;;27.70;47.60;;;;;;10486360;28;20253;-82
2023/07/07 13:40:14;;;;;;;8.33;7.50;;;27.60;50.00;;;;;;10484478;28;20213;-81
2023/07/07 13:45:19;;;;;;;8.60;6.87;;;27.70;45.80;;;;;;10498513;28;20239;-81
2023/07/07 13:50:26;;;;;;;7.37;6.70;;;27.70;46.50;;;;;;10495465;28;20217;-82
2023/07/07 13:55:30;;;;;;;7.47;6.73;;;27.70;46.70;;;;;;10473641;28;20308;-82
2023/07/07 14:00:35;;;;;;;6.97;6.27;;;27.70;47.90;;;;;;10480216;28;20277;-80
2023/07/07 14:05:38;;;;;;;7.17;6.00;;;27.60;46.50;;;;;;10481020;28;20770;-82
2023/07/07 14:10:45;;;;;;;7.00;6.30;;;27.70;48.50;;;;;;10481612;28;20193;-79
2023/07/07 14:15:54;;;;;;;7.43;6.73;;;27.60;48.50;;;;;;10470611;28;20233;-82
2023/07/07 14:20:58;;;;;;;7.47;6.20;;;27.60;47.10;;;;;;10487220;28;20307;-83
2023/07/07 14:26:00;;;;;;;7.80;6.53;;;27.50;48.00;;;;;;10484591;28;20251;-83
2023/07/07 14:31:04;;;;;;;7.67;6.07;;;27.60;45.80;;;;;;10491336;28;20217;-83
2023/07/07 14:36:18;;;;;;;6.47;5.80;;;27.60;45.80;;;;;;10478825;28;20260;-80
2023/07/07 14:41:20;;;;;;;9.30;6.43;;;27.60;49.60;;;;;;10474648;28;20325;-82
2023/07/07 14:46:27;;;;;;;6.83;6.10;;;27.50;46.00;;;;;;10491094;28;20225;-82
2023/07/07 14:51:34;;;;;;;6.63;5.93;;;27.70;46.80;;;;;;10487202;28;20209;-79
2023/07/07 14:56:40;;;;;;;7.20;6.10;;;27.70;45.10;;;;;;10488114;28;20230;-79
2023/07/07 15:01:44;;;;;;;6.83;5.47;;;27.70;45.20;;;;;;10492056;28;20253;-82
2023/07/07 15:06:51;;;;;;;6.70;5.60;;;27.70;47.90;;;;;;10483360;28;20274;-81
2023/07/07 15:11:55;;;;;;;6.50;5.70;;;27.60;46.50;;;;;;10495121;28;20205;-81
2023/07/07 15:16:57;;;;;;;5.67;5.10;;;27.60;48.00;;;;;;10469561;28;20221;-81
2023/07/07 15:22:00;;;;;;;6.47;5.87;;;27.50;46.40;;;;;;10486155;28;20217;-82
2023/07/07 15:27:03;;;;;;;6.27;5.67;;;27.50;46.60;;;;;;10445787;28;20248;-81
2023/07/07 15:32:10;;;;;;;8.17;6.27;;;27.50;46.20;;;;;;10445983;28;20198;-81
2023/07/07 15:37:14;;;;;;;8.50;6.63;;;27.60;45.40;;;;;;10429150;28;20704;-80
2023/07/07 15:42:16;;;;;;;8.20;5.73;;;27.60;45.70;;;;;;10449150;28;20218;-82
2023/07/07 15:47:21;;;;;;;10.70;5.90;;;27.80;45.30;;;;;;10444906;28;20194;-81
2023/07/07 15:52:24;;;;;;;6.63;5.80;;;27.80;47.60;;;;;;10445894;28;20198;-81
2023/07/07 15:57:26;;;;;;;6.47;5.60;;;27.80;44.30;;;;;;10447826;28;20210;-82
2023/07/07 16:02:28;;;;;;;7.20;6.20;;;27.90;45.70;;;;;;10429211;28;20249;-82
2023/07/07 16:07:32;;;;;;;6.00;5.47;;;28.00;44.30;;;;;;10459932;28;20232;-82
2023/07/07 16:12:34;;;;;;;6.30;5.67;;;28.10;45.00;;;;;;10443043;28;20316;-79
2023/07/07 16:17:36;;;;;;;5.77;5.20;;;28.00;47.60;;;;;;10425293;28;20201;-82
2023/07/07 16:22:47;;;;;;;6.70;5.50;;;27.90;46.40;;;;;;10432544;28;20229;-83
2023/07/07 16:27:49;;;;;;;7.53;6.73;;;27.80;46.10;;;;;;10483252;28;20664;-81
2023/07/07 16:32:52;;;;;;;6.77;6.10;;;27.90;44.00;;;;;;10486006;28;20256;-82
2023/07/07 16:37:55;;;;;;;5.73;5.13;;;28.00;45.10;;;;;;10484499;28;20235;-82
2023/07/07 16:42:57;;;;;;;6.10;5.00;;;28.00;46.30;;;;;;10481830;28;20241;-82
2023/07/07 16:48:00;;;;;;;6.50;5.90;;;27.90;44.70;;;;;;10463436;28;20207;-81
2023/07/07 16:53:04;;;;;;;6.00;5.47;;;27.90;47.00;;;;;;10469194;28;20225;-82
2023/07/07 16:58:08;;;;;;;7.57;5.57;;;27.70;45.10;;;;;;10476321;28;20280;-82
2023/07/07 17:03:13;;;;;;;6.03;5.43;;;27.60;48.60;;;;;;10481819;28;20261;-82
2023/07/07 17:08:16;;;;;;;8.20;5.77;;;27.60;46.30;;;;;;10483077;28;20249;-82
2023/07/07 17:13:18;;;;;;;6.13;5.37;;;27.60;48.80;;;;;;10457106;28;20684;-81
2023/07/07 17:18:20;;;;;;;9.50;5.53;;;27.50;47.40;;;;;;10481763;28;20739;-81
2023/07/07 17:23:24;;;;;;;6.47;5.87;;;27.50;45.80;;;;;;10478374;28;20221;-83
2023/07/07 17:28:28;;;;;;;6.37;5.03;;;27.50;46.50;;;;;;10483615;28;20209;-83
2023/07/07 17:33:30;;;;;;;5.80;4.93;;;27.40;47.30;;;;;;10463655;28;20214;-81
2023/07/07 17:38:34;;;;;;;5.40;4.90;;;27.40;48.90;;;;;;10464374;28;20272;-82
2023/07/07 17:43:36;;;;;;;5.40;4.90;;;27.30;45.80;;;;;;10484327;28;20221;-83
2023/07/07 17:48:38;;;;;;;5.63;5.07;;;27.50;44.50;;;;;;10485138;28;20194;-82
2023/07/07 17:53:41;;;;;;;5.90;4.83;;;27.50;46.20;;;;;;10465131;28;20218;-82
2023/07/07 17:58:44;;;;;;;5.53;4.90;;;27.40;48.50;;;;;;10478667;28;20208;-83
2023/07/07 18:03:47;;;;;;;5.80;5.20;;;27.30;50.30;;;;;;10480065;28;20234;-82
2023/07/07 18:08:51;;;;;;;8.00;5.33;;;27.20;51.10;;;;;;10461846;28;20312;-83
2023/07/07 18:13:54;;;;;;;6.77;6.17;;;27.10;48.30;;;;;;10476596;28;20301;-81
2023/07/07 18:18:56;;;;;;;7.63;6.93;;;27.00;50.70;;;;;;10480230;28;20229;-82
2023/07/07 18:23:59;;;;;;;6.40;5.80;;;26.80;51.40;;;;;;10488452;28;20232;-82
2023/07/07 18:29:11;;;;;;;9.33;6.53;;;26.70;51.50;;;;;;10460425;28;20201;-82
2023/07/07 18:34:14;;;;;;;8.30;6.30;;;26.60;49.60;;;;;;10447210;28;20237;-82
2023/07/07 18:39:23;;;;;;;7.00;5.67;;;26.70;49.50;;;;;;10469894;28;20245;-83
2023/07/07 18:44:25;;;;;;;6.17;5.57;;;26.70;49.50;;;;;;10505721;28;20712;-79
2023/07/07 18:49:27;;;;;;;7.50;6.77;;;26.60;50.50;;;;;;10483242;28;20296;-82
2023/07/07 18:54:31;;;;;;;9.67;8.63;;;26.60;52.10;;;;;;10468336;28;20233;-84
2023/07/07 18:59:33;;;;;;;9.53;8.00;;;26.50;51.90;;;;;;10488146;28;20673;-83
2023/07/07 19:04:35;;;;;;;7.73;7.00;;;26.40;51.90;;;;;;10485240;28;20256;-79
2023/07/07 19:09:40;;;;;;;7.93;6.37;;;26.30;52.10;;;;;;10486884;28;20224;-82
2023/07/07 19:14:42;;;;;;;7.70;5.70;;;26.20;53.70;;;;;;10491636;28;20282;-82
2023/07/07 19:19:45;;;;;;;6.80;6.20;;;26.10;52.50;;;;;;10486699;28;20209;-82
2023/07/07 19:24:48;;;;;;;7.77;7.00;;;26.00;52.00;;;;;;10478913;28;20244;-80
2023/07/07 19:29:50;;;;;;;8.80;6.17;;;25.90;51.70;;;;;;10488880;28;20209;-81
2023/07/07 19:34:52;;;;;;;6.67;5.50;;;25.90;52.10;;;;;;10495112;28;20344;-81
2023/07/07 19:39:55;;;;;;;6.50;5.90;;;25.80;52.20;;;;;;10478604;28;20244;-82
2023/07/07 19:44:58;;;;;;;7.07;5.90;;;25.70;52.40;;;;;;10487950;28;20372;-80
2023/07/07 19:50:00;;;;;;;7.63;6.10;;;25.60;52.50;;;;;;10487700;28;20237;-82
2023/07/07 19:55:03;;;;;;;6.80;6.10;;;25.60;52.40;;;;;;10471438;28;20690;-83
2023/07/07 20:00:20;;;;;;;7.17;6.30;;;25.50;52.20;;;;;;10472227;28;20280;-81
2023/07/07 20:05:22;;;;;;;10.90;5.80;;;25.50;52.10;;;;;;10473680;28;20229;-80
2023/07/07 20:10:26;;;;;;;6.90;6.20;;;25.50;51.90;;;;;;10488569;28;20202;-82
2023/07/07 20:15:28;;;;;;;7.20;5.80;;;25.50;52.50;;;;;;10491707;28;20213;-83
2023/07/07 20:20:30;;;;;;;7.87;6.93;;;25.40;53.00;;;;;;10472083;28;20212;-81
2023/07/07 20:25:33;;;;;;;8.60;6.73;;;25.30;52.80;;;;;;10474473;28;20358;-81
2023/07/07 20:30:35;;;;;;;8.07;6.80;;;25.30;52.90;;;;;;10476745;28;20197;-82
2023/07/07 20:35:38;;;;;;;8.20;6.73;;;25.30;52.60;;;;;;10488118;28;20217;-81
2023/07/07 20:40:44;;;;;;;7.30;6.53;;;25.20;53.10;;;;;;10471754;28;20217;-82
2023/07/07 20:45:46;;;;;;;9.97;6.40;;;25.20;52.60;;;;;;10476855;28;20238;-82
2023/07/07 20:50:53;;;;;;;9.10;6.27;;;25.20;52.20;;;;;;10466618;28;20201;-82
2023/07/07 20:55:57;;;;;;;7.97;6.57;;;25.20;52.60;;;;;;10466119;28;20396;-79
2023/07/07 21:01:01;;;;;;;6.60;6.00;;;25.10;52.60;;;;;;10464952;28;20669;-83
2023/07/07 21:06:03;;;;;;;7.60;5.60;;;25.10;53.10;;;;;;10483044;28;20233;-79
2023/07/07 21:11:09;;;;;;;11.90;6.50;;;25.10;52.60;;;;;;10484251;28;20294;-81
2023/07/07 21:16:14;;;;;;;8.27;6.83;;;25.00;53.20;;;;;;10485356;28;20218;-82
2023/07/07 21:21:17;;;;;;;6.53;5.93;;;25.00;53.10;;;;;;10482855;28;20205;-84
2023/07/07 21:26:23;;;;;;;9.50;6.83;;;24.90;53.40;;;;;;10501679;28;20252;-83
2023/07/07 21:31:28;;;;;;;7.70;6.77;;;24.80;53.70;;;;;;10488764;28;20214;-83
2023/07/07 21:36:33;;;;;;;6.90;6.20;;;24.80;53.20;;;;;;10486720;28;20237;-81
2023/07/07 21:41:36;;;;;;;7.77;6.83;;;24.70;53.10;;;;;;10467501;28;20194;-82
2023/07/07 21:46:39;;;;;;;7.00;6.07;;;24.70;53.20;;;;;;10488139;28;20627;-81
2023/07/07 21:51:41;;;;;;;8.60;7.07;;;24.60;53.40;;;;;;10485784;28;20256;-79
2023/07/07 21:56:44;;;;;;;7.43;6.63;;;24.60;53.40;;;;;;10487095;28;20712;-82
2023/07/07 22:01:48;;;;;;;9.03;7.00;;;24.50;52.70;;;;;;10467177;28;20530;-82
2023/07/07 22:06:50;;;;;;;7.77;7.07;;;24.50;52.90;;;;;;10470939;28;20228;-83
2023/07/07 22:11:53;;;;;;;7.53;6.73;;;24.50;52.90;;;;;;10463631;28;20251;-81
2023/07/07 22:16:55;;;;;;;7.47;6.60;;;24.50;52.50;;;;;;10487709;28;20244;-83
2023/07/07 22:21:57;;;;;;;7.20;6.50;;;24.40;52.30;;;;;;10492886;28;20233;-82
2023/07/07 22:27:01;;;;;;;7.23;6.53;;;24.40;52.50;;;;;;10449961;28;20229;-82
2023/07/07 22:32:11;;;;;;;9.20;6.57;;;24.40;52.30;;;;;;10431217;28;20261;-82
2023/07/07 22:37:13;;;;;;;7.87;6.47;;;24.40;52.20;;;;;;10439738;28;20208;-80
2023/07/07 22:42:17;;;;;;;7.67;6.60;;;24.30;52.20;;;;;;10443468;28;20250;-81
2023/07/07 22:47:19;;;;;;;7.03;6.33;;;24.30;51.70;;;;;;10439843;28;20296;-82
2023/07/07 22:52:21;;;;;;;10.37;6.17;;;24.30;51.10;;;;;;10422298;28;20210;-83
2023/07/07 22:57:26;;;;;;;6.97;6.23;;;24.30;52.30;;;;;;10437860;28;20205;-82
2023/07/07 23:02:29;;;;;;;7.17;6.47;;;24.20;52.90;;;;;;10444984;28;20224;-83
2023/07/07 23:07:31;;;;;;;8.30;7.30;;;24.20;53.60;;;;;;10447386;28;20225;-82
2023/07/07 23:12:35;;;;;;;7.53;6.83;;;24.10;53.10;;;;;;10440370;28;20356;-82
2023/07/07 23:17:37;;;;;;;7.67;6.90;;;24.00;53.10;;;;;;10427538;28;20281;-82
2023/07/07 23:22:50;;;;;;;6.90;6.20;;;23.90;53.40;;;;;;10428547;28;20234;-82
2023/07/07 23:27:58;;;;;;;6.53;5.87;;;23.90;53.60;;;;;;10462268;28;20202;-81
2023/07/07 23:33:00;;;;;;;6.40;5.73;;;23.80;54.10;;;;;;10464966;28;20225;-81
2023/07/07 23:38:03;;;;;;;7.37;6.67;;;23.70;54.70;;;;;;10464973;28;20266;-82
2023/07/07 23:43:08;;;;;;;7.93;7.13;;;23.60;55.30;;;;;;10448123;28;20221;-82
2023/07/07 23:48:12;;;;;;;7.23;6.53;;;23.50;55.30;;;;;;10445878;28;20204;-82
2023/07/07 23:53:15;;;;;;;7.43;6.37;;;23.40;55.60;;;;;;10467563;28;20218;-81
2023/07/07 23:58:21;;;;;;;9.47;7.07;;;23.30;56.20;;;;;;10462867;28;20202;-82
